Time;durP1;ratioP1;P1;durP2;ratioP2;P2;SDS_P1;SDS_P2;PMS_P1;PMS_P2;Temp;Humidity;BMP_temperature;BMP_pressure;BME280_temperature;BME280_humidity;BME280_pressure;Samples;Min_cycle;Max_cycle;Signal;HPM_P1;HPM_P2
2022/10/07 00:00:20;;;;;;;23.92;11.50;;;19.90;95.30;;;19.72;64.84;100224.34;5092637;28;20036;-75
2022/10/07 00:03:07;;;;;;;32.35;13.55;;;19.80;95.20;;;19.73;64.40;100217.72;5089383;28;20082;-75
2022/10/07 00:05:33;;;;;;;29.30;14.00;;;19.80;95.10;;;19.72;65.14;100227.91;5092410;28;20073;-75
2022/10/07 00:07:59;;;;;;;26.38;12.90;;;19.90;95.40;;;19.73;65.48;100218.53;5086702;28;20051;-75
2022/10/07 00:10:26;;;;;;;24.10;13.85;;;19.80;95.50;;;19.73;65.39;100217.72;5087071;28;20040;-75
2022/10/07 00:12:52;;;;;;;26.40;13.40;;;19.80;95.40;;;19.68;64.88;100221.34;5101996;28;20043;-75
2022/10/07 00:15:18;;;;;;;24.33;12.77;;;19.80;95.30;;;19.69;64.88;100222.16;5105694;28;20039;-75
2022/10/07 00:17:44;;;;;;;30.35;13.18;;;19.70;95.30;;;19.68;64.80;100221.34;5087363;28;20123;-75
2022/10/07 00:20:10;;;;;;;24.52;13.25;;;19.70;95.30;;;19.67;64.63;100219.72;5090527;28;20039;-75
2022/10/07 00:22:36;;;;;;;23.20;13.27;;;19.70;95.30;;;19.66;65.25;100218.06;5108943;28;20352;-75
2022/10/07 00:25:04;;;;;;;27.33;13.10;;;19.70;95.40;;;19.67;65.81;100218.91;5084216;28;20448;-75
2022/10/07 00:27:30;;;;;;;27.15;13.35;;;19.70;95.60;;;19.67;65.31;100219.72;5098100;28;20109;-75
2022/10/07 00:29:56;;;;;;;23.98;12.60;;;19.70;95.40;;;19.67;65.09;100219.72;5103080;28;20478;-74
2022/10/07 00:32:22;;;;;;;23.13;13.00;;;19.70;95.60;;;19.65;65.00;100212.84;5074551;28;20117;-74
2022/10/07 00:34:48;;;;;;;23.27;11.65;;;19.70;95.20;;;19.63;64.83;100210.41;5087427;28;20037;-75
2022/10/07 00:37:14;;;;;;;22.27;12.05;;;19.70;95.20;;;19.63;65.18;100213.16;5090785;28;20035;-75
2022/10/07 00:39:40;;;;;;;25.58;12.07;;;19.70;95.30;;;19.62;65.89;100208.78;5101006;28;20043;-75
2022/10/07 00:42:06;;;;;;;21.77;11.55;;;19.70;95.60;;;19.64;65.96;100203.78;5067936;28;20065;-75
2022/10/07 00:44:34;;;;;;;26.73;12.70;;;19.70;95.60;;;19.61;65.29;100204.38;5106672;28;20055;-75
2022/10/07 00:47:24;;;;;;;20.92;10.85;;;19.60;95.40;;;19.63;64.94;100207.66;5102468;28;20081;-74
2022/10/07 00:50:09;;;;;;;19.23;11.40;;;19.60;95.40;;;19.61;65.06;100206.31;5078706;28;20051;-75
2022/10/07 00:52:46;;;;;;;21.77;11.25;;;19.70;95.40;;;19.59;65.28;100201.13;5108414;28;20035;-75
2022/10/07 00:55:20;;;;;;;20.23;10.75;;;19.60;95.40;;;19.58;65.82;100204.97;5109151;28;20042;-75
2022/10/07 00:57:46;;;;;;;21.05;10.93;;;19.60;95.60;;;19.59;65.91;100203.88;5076502;28;20578;-75
2022/10/07 01:00:13;;;;;;;21.00;10.43;;;19.70;95.60;;;19.56;65.45;100198.94;5100684;28;20036;-74
2022/10/07 01:02:39;;;;;;;21.30;10.75;;;19.60;95.50;;;19.55;65.49;100202.81;5072692;28;20136;-74
2022/10/07 01:05:07;;;;;;;22.15;12.68;;;19.60;95.40;;;19.56;65.09;100196.19;5089204;28;20048;-74
2022/10/07 01:07:33;;;;;;;21.30;11.35;;;19.60;95.40;;;19.55;65.30;100197.31;5087573;28;20386;-74
2022/10/07 01:09:59;;;;;;;25.42;12.23;;;19.60;95.40;;;19.56;65.82;100190.69;5103912;28;20042;-74
2022/10/07 01:13:07;;;;;;;23.17;11.88;;;19.60;95.60;;;19.58;65.92;100193.97;5102381;28;20039;-74
2022/10/07 01:15:42;;;;;;;22.08;11.50;;;19.60;95.70;;;19.52;66.02;100193.22;5097722;28;20048;-74
2022/10/07 01:18:12;;;;;;;19.70;10.70;;;19.60;95.90;;;19.53;65.54;100188.53;5090012;28;20577;-75
2022/10/07 01:21:03;;;;;;;20.33;10.63;;;19.60;95.50;;;19.53;65.49;100185.78;5100790;28;20027;-75
2022/10/07 01:23:55;;;;;;;21.10;11.60;;;19.60;95.50;;;19.51;65.23;100177.84;5061015;28;20067;-75
2022/10/07 01:27:10;;;;;;;16.58;10.10;;;19.50;95.40;;;19.53;65.75;100180.28;5099055;28;20104;-75
2022/10/07 01:29:42;;;;;;;19.00;10.73;;;19.60;95.60;;;19.53;66.14;100175.59;5090500;28;20125;-75
2022/10/07 01:32:20;;;;;;;16.75;11.05;;;19.50;95.60;;;19.49;65.86;100176.50;5064493;28;20044;-74
2022/10/07 01:34:46;;;;;;;17.55;10.02;;;19.50;95.50;;;19.48;65.52;100169.34;5076965;28;20117;-74
2022/10/07 01:37:14;;;;;;;16.92;10.20;;;19.50;95.50;;;19.42;65.75;100173.31;5087706;28;20127;-74
2022/10/07 01:39:47;;;;;;;19.77;11.55;;;19.50;95.40;;;19.47;65.53;100170.47;5104285;28;20371;-74
2022/10/07 01:42:13;;;;;;;21.42;11.57;;;19.50;95.40;;;19.48;65.81;100169.34;5087140;28;20088;-74
2022/10/07 01:44:39;;;;;;;22.15;10.82;;;19.50;95.60;;;19.52;66.15;100167.66;5102037;28;20040;-75
2022/10/07 01:47:05;;;;;;;19.77;11.55;;;19.50;95.70;;;19.48;66.43;100167.41;5078575;28;20047;-74
2022/10/07 01:49:32;;;;;;;16.55;10.00;;;19.50;95.60;;;19.43;65.78;100164.75;5110284;28;20401;-74
2022/10/07 01:52:29;;;;;;;16.77;8.98;;;19.50;95.50;;;19.42;65.82;100162.31;5099577;28;20152;-74
2022/10/07 01:55:27;;;;;;;18.05;9.77;;;19.50;95.50;;;19.46;65.28;100163.31;5083513;28;20051;-74
2022/10/07 01:58:19;;;;;;;21.55;9.63;;;19.50;95.50;;;19.41;66.05;100157.91;5100407;28;20039;-74
2022/10/07 02:00:48;;;;;;;21.65;10.23;;;19.40;95.60;;;19.43;66.36;100159.25;5103869;28;20463;-74
2022/10/07 02:03:23;;;;;;;21.88;10.18;;;19.40;95.70;;;19.43;66.51;100156.50;5086395;28;20118;-74
2022/10/07 02:05:53;;;;;;;16.05;9.32;;;19.50;95.80;;;19.41;66.00;100161.50;5082171;28;20151;-74
2022/10/07 02:08:36;;;;;;;22.25;10.43;;;19.40;95.60;;;19.40;65.66;100159.03;5101252;28;20107;-74
2022/10/07 02:11:36;;;;;;;14.07;7.78;;;19.40;95.60;;;19.38;65.74;100156.56;5067772;28;20470;-75
2022/10/07 02:14:27;;;;;;;16.05;8.40;;;19.40;95.50;;;19.40;66.16;100159.03;5091375;28;20479;-74
2022/10/07 02:17:02;;;;;;;18.17;10.32;;;19.40;95.60;;;19.38;66.63;100161.25;5088025;28;20118;-74
2022/10/07 02:19:31;;;;;;;22.40;9.70;;;19.40;95.70;;;19.43;66.43;100155.69;5089147;28;20119;-74
2022/10/07 02:21:59;;;;;;;18.50;9.27;;;19.40;95.70;;;19.38;65.98;100156.56;5100617;28;20518;-74
2022/10/07 02:24:28;;;;;;;17.50;8.65;;;19.40;95.60;;;19.39;65.77;100157.41;5073624;28;20044;-74
2022/10/07 02:26:54;;;;;;;14.27;8.80;;;19.40;95.60;;;19.38;65.67;100155.75;5073770;28;20051;-74
2022/10/07 02:29:21;;;;;;;15.68;9.90;;;19.40;95.50;;;19.38;65.41;100150.25;5064400;28;20567;-74
2022/10/07 02:31:47;;;;;;;18.48;9.50;;;19.40;95.50;;;19.37;66.51;100151.38;5071412;28;20035;-74
2022/10/07 02:34:16;;;;;;;16.08;9.20;;;19.30;95.70;;;19.37;66.51;100148.63;5099336;28;20074;-74
2022/10/07 02:37:04;;;;;;;13.90;8.20;;;19.40;95.70;;;19.35;66.10;100142.59;5082375;28;20084;-74
2022/10/07 02:39:30;;;;;;;17.73;9.32;;;19.40;95.60;;;19.32;65.97;100138.53;5084489;28;20126;-74
2022/10/07 02:42:08;;;;;;;18.00;8.77;;;19.40;95.50;;;19.34;65.72;100143.75;5083148;28;20043;-74
2022/10/07 02:44:50;;;;;;;16.45;9.35;;;19.30;95.50;;;19.30;65.89;100143.50;5074675;28;20036;-74
2022/10/07 02:47:56;;;;;;;16.63;9.80;;;19.30;95.50;;;19.29;66.72;100139.94;5089918;28;20036;-74
2022/10/07 02:50:24;;;;;;;15.20;8.65;;;19.30;95.80;;;19.32;66.39;100137.72;5084825;28;20051;-74
2022/10/07 02:52:51;;;;;;;13.68;8.85;;;19.30;95.80;;;19.32;66.16;100130.28;5069112;28;20047;-74
2022/10/07 02:55:21;;;;;;;16.80;9.25;;;19.30;95.60;;;19.30;65.86;100140.75;5080810;28;20040;-74
2022/10/07 02:57:50;;;;;;;13.05;7.57;;;19.30;95.60;;;19.26;66.29;100135.03;5081037;28;20055;-74
2022/10/07 03:00:17;;;;;;;13.35;7.97;;;19.20;95.50;;;19.31;65.63;100134.16;5067397;28;20483;-74
2022/10/07 03:02:54;;;;;;;14.77;8.52;;;19.30;95.50;;;19.28;66.20;100132.81;5099910;28;20087;-74
2022/10/07 03:05:20;;;;;;;13.18;7.10;;;19.20;95.60;;;19.29;66.38;100139.94;5056842;28;20059;-74
2022/10/07 03:08:07;;;;;;;13.13;8.43;;;19.20;95.70;;;19.29;66.46;100136.38;5072234;28;20048;-75
2022/10/07 03:10:34;;;;;;;16.13;8.75;;;19.30;95.70;;;19.24;66.04;100134.50;5076198;28;20752;-75
2022/10/07 03:13:03;;;;;;;12.20;7.78;;;19.30;95.60;;;19.24;66.01;100130.94;5065948;28;20622;-75
2022/10/07 03:15:30;;;;;;;11.70;7.70;;;19.20;95.50;;;19.23;65.89;100127.38;5102251;28;20047;-76
2022/10/07 03:17:56;;;;;;;14.38;8.27;;;19.20;95.50;;;19.25;66.22;100136.13;5057226;28;20044;-75
2022/10/07 03:20:22;;;;;;;11.52;7.72;;;19.20;95.60;;;19.29;66.80;100139.13;5090513;28;20483;-75
2022/10/07 03:22:49;;;;;;;15.85;7.80;;;19.30;95.80;;;19.23;66.78;100132.91;5080575;28;20044;-75
2022/10/07 03:25:15;;;;;;;11.43;7.18;;;19.20;95.70;;;19.22;66.39;100135.94;5088397;28;20054;-75
2022/10/07 03:27:41;;;;;;;16.00;7.65;;;19.20;95.60;;;19.23;66.24;100137.56;5081725;28;20035;-77
2022/10/07 03:30:09;;;;;;;13.05;8.27;;;19.20;95.60;;;19.21;66.28;100142.53;5065868;28;20135;-77
2022/10/07 03:32:36;;;;;;;14.32;8.70;;;19.20;95.60;;;19.19;66.12;100131.03;5057736;28;20063;-77
2022/10/07 03:35:02;;;;;;;15.68;8.55;;;19.20;95.60;;;19.21;66.82;100135.13;5083720;28;20050;-77
2022/10/07 03:37:29;;;;;;;14.35;7.13;;;19.20;95.80;;;19.21;66.82;100129.63;5098504;28;20474;-75
2022/10/07 03:39:54;;;;;;;14.00;7.45;;;19.20;95.80;;;19.19;67.05;100136.53;5108114;28;20440;-76
2022/10/07 03:42:20;;;;;;;11.90;7.60;;;19.20;95.80;;;19.15;66.53;100125.28;5087063;28;20035;-75
2022/10/07 03:44:50;;;;;;;20.05;7.70;;;19.20;95.60;;;19.18;66.04;100130.19;5082359;28;20043;-75
2022/10/07 03:47:16;;;;;;;13.93;7.80;;;19.10;95.60;;;19.16;66.23;100126.09;5081504;28;20119;-75
2022/10/07 03:49:43;;;;;;;12.95;7.47;;;19.10;95.70;;;19.17;66.25;100123.06;5084287;28;20032;-75
2022/10/07 03:52:09;;;;;;;12.07;7.53;;;19.10;95.60;;;19.18;66.71;100113.69;5106234;28;20041;-75
2022/10/07 03:54:35;;;;;;;11.60;6.38;;;19.10;95.70;;;19.15;65.98;100111.53;5084038;28;20044;-75
2022/10/07 03:57:02;;;;;;;12.98;7.22;;;19.10;95.50;;;19.11;65.70;100118.78;5101917;28;20447;-75
2022/10/07 03:59:28;;;;;;;12.30;7.25;;;19.10;95.40;;;19.15;64.99;100110.72;5089535;28;20405;-75
2022/10/07 04:01:54;;;;;;;13.57;6.82;;;19.10;95.30;;;19.14;65.03;100111.84;5085399;28;20168;-75
2022/10/07 04:04:20;;;;;;;11.32;6.90;;;19.10;95.30;;;19.12;65.85;100105.84;5085551;28;20039;-75
2022/10/07 04:06:46;;;;;;;10.32;6.40;;;19.10;95.50;;;19.14;66.04;100112.66;5081649;28;20048;-75
2022/10/07 04:09:13;;;;;;;9.70;6.38;;;19.00;95.60;;;19.11;65.78;100105.03;5088929;28;20040;-75
2022/10/07 04:11:40;;;;;;;9.50;6.28;;;19.10;95.50;;;19.08;65.43;100102.84;5072334;28;20043;-75
2022/10/07 04:14:07;;;;;;;10.38;6.95;;;19.00;95.30;;;19.11;64.94;100098.69;5100705;28;20130;-75
2022/10/07 04:16:33;;;;;;;9.43;6.18;;;19.00;95.20;;;19.09;64.57;100096.25;5101478;28;20040;-75
2022/10/07 04:18:59;;;;;;;11.38;5.85;;;19.00;95.10;;;19.08;64.71;100094.59;5090569;28;20051;-75
2022/10/07 04:21:25;;;;;;;12.40;6.13;;;19.00;95.10;;;19.10;65.47;100086.88;5092627;28;20031;-75
2022/10/07 04:23:51;;;;;;;8.88;6.35;;;19.00;95.40;;;19.09;65.64;100088.81;5084641;28;20120;-75
2022/10/07 04:26:17;;;;;;;9.85;5.97;;;19.00;95.40;;;19.07;64.96;100087.47;5083207;28;20399;-75
2022/10/07 04:28:43;;;;;;;7.18;5.90;;;19.00;95.30;;;19.04;64.90;100090.81;5101593;28;20067;-75
2022/10/07 04:31:09;;;;;;;9.55;6.07;;;19.00;95.20;;;19.04;64.35;100079.81;5073575;28;20412;-75
2022/10/07 04:33:39;;;;;;;7.80;6.03;;;19.00;95.10;;;19.04;63.93;100082.56;5067003;28;20042;-75
2022/10/07 04:36:07;;;;;;;9.45;6.47;;;18.90;95.00;;;19.01;64.54;100086.75;5082651;28;20785;-75
2022/10/07 04:38:33;;;;;;;10.25;6.25;;;19.00;95.20;;;19.00;65.52;100082.34;5097142;28;20044;-75
2022/10/07 04:41:03;;;;;;;8.02;5.88;;;18.90;95.30;;;19.04;65.21;100080.63;5071571;28;20431;-75
2022/10/07 04:43:32;;;;;;;7.38;5.32;;;19.00;95.40;;;19.02;64.84;100082.88;5084391;28;20080;-75
2022/10/07 04:46:12;;;;;;;8.40;5.72;;;19.00;95.10;;;19.02;64.26;100082.06;5106452;28;20095;-75
2022/10/07 04:48:40;;;;;;;8.73;5.72;;;18.90;95.00;;;18.99;64.04;100077.16;5070348;28;20495;-75
2022/10/07 04:51:07;;;;;;;8.63;5.75;;;18.90;95.00;;;19.03;63.55;100081.75;5081382;28;20503;-75
2022/10/07 04:53:35;;;;;;;10.52;5.72;;;18.90;95.00;;;19.01;64.53;100080.44;5081229;28;20730;-75
2022/10/07 04:56:01;;;;;;;8.73;5.57;;;18.90;95.20;;;19.04;64.74;100066.06;5073549;28;20036;-75
2022/10/07 04:58:27;;;;;;;6.00;4.55;;;18.90;95.30;;;19.00;64.35;100071.34;5095790;28;20158;-75
2022/10/07 05:00:54;;;;;;;7.85;5.70;;;18.90;95.10;;;19.02;63.76;100076.56;5098838;28;20077;-75
2022/10/07 05:03:22;;;;;;;9.98;5.78;;;18.90;95.00;;;18.99;63.64;100077.16;5064339;28;20047;-75
2022/10/07 05:05:51;;;;;;;6.28;4.88;;;18.90;94.90;;;18.97;63.20;100071.94;5087935;28;20043;-75
2022/10/07 05:08:19;;;;;;;7.88;5.25;;;18.90;94.80;;;18.98;63.58;100079.09;5071772;28;20043;-75
2022/10/07 05:10:45;;;;;;;9.02;5.97;;;18.90;94.90;;;19.00;64.41;100070.53;5068572;28;20048;-75
2022/10/07 05:13:13;;;;;;;8.13;5.40;;;18.90;95.20;;;19.05;64.23;100079.50;5065835;28;20040;-75
2022/10/07 05:16:00;;;;;;;6.80;4.20;;;18.90;95.50;;;19.02;63.43;100069.13;5080936;28;20518;-75
2022/10/07 05:18:27;;;;;;;8.25;5.32;;;18.90;94.90;;;18.96;63.38;100069.50;5067950;28;20475;-76
2022/10/07 05:20:53;;;;;;;8.05;4.70;;;18.90;94.70;;;19.01;62.62;100063.94;5062763;28;20042;-77
2022/10/07 05:23:21;;;;;;;7.63;5.10;;;18.90;94.60;;;19.01;62.55;100072.19;5080447;28;20454;-77
2022/10/07 05:25:55;;;;;;;9.00;5.35;;;18.90;94.60;;;18.97;63.83;100068.38;5084888;28;20047;-77
2022/10/07 05:28:22;;;;;;;7.55;4.72;;;18.90;95.10;;;18.96;64.05;100059.31;5057268;28;20436;-77
2022/10/07 05:30:48;;;;;;;8.18;5.57;;;18.90;95.10;;;18.95;63.67;100063.16;5060200;28;20388;-77
2022/10/07 05:33:15;;;;;;;5.88;3.75;;;18.80;94.90;;;18.97;63.28;100060.13;5075445;28;20048;-81
2022/10/07 05:35:45;;;;;;;6.85;4.50;;;18.80;94.80;;;18.99;62.71;100064.22;5074280;28;20035;-78
2022/10/07 05:38:11;;;;;;;6.47;4.03;;;18.80;94.60;;;18.98;62.62;100059.84;5072477;28;20386;-77
2022/10/07 05:40:37;;;;;;;6.38;3.90;;;18.80;94.60;;;18.96;62.68;100056.56;5098367;28;20035;-77
2022/10/07 05:43:04;;;;;;;4.15;3.42;;;18.80;94.70;;;18.99;63.42;100060.66;5086105;28;20040;-77
2022/10/07 05:45:30;;;;;;;8.10;4.63;;;18.80;95.00;;;19.04;63.36;100057.81;5084849;28;20051;-77
2022/10/07 05:47:57;;;;;;;8.32;4.72;;;18.90;95.00;;;19.02;62.58;100063.63;5100847;28;20043;-77
2022/10/07 05:50:23;;;;;;;8.95;4.57;;;18.80;94.60;;;19.02;62.19;100062.81;5071460;28;20049;-77
2022/10/07 05:52:50;;;;;;;7.85;4.72;;;18.90;94.60;;;19.00;62.46;100059.53;5098015;28;20391;-77
2022/10/07 05:55:17;;;;;;;6.60;4.30;;;18.80;94.50;;;18.99;62.39;100058.72;5101681;28;20036;-77
2022/10/07 05:57:43;;;;;;;6.03;4.35;;;18.80;94.70;;;19.00;62.18;100062.28;5087283;28;20586;-77
2022/10/07 06:00:10;;;;;;;5.95;4.20;;;18.80;94.60;;;19.00;62.34;100065.03;5073179;28;20809;-77
2022/10/07 06:02:37;;;;;;;7.32;3.78;;;18.80;94.60;;;19.01;62.33;100066.69;5098065;28;20074;-77
2022/10/07 06:05:04;;;;;;;7.65;4.53;;;18.80;94.80;;;19.01;62.74;100059.25;5096419;28;20044;-77
2022/10/07 06:07:30;;;;;;;8.32;4.13;;;18.80;94.90;;;19.02;62.93;100060.06;5098297;28;20470;-77
2022/10/07 06:15:25;;;;;;;8.52;3.75;;;18.80;94.70;;;19.00;62.59;100070.53;5099328;28;20389;-77
2022/10/07 06:17:51;;;;;;;6.10;4.57;;;18.80;94.60;;;19.00;62.49;100068.59;5065993;28;20040;-77
2022/10/07 06:20:17;;;;;;;4.13;3.75;;;18.90;94.80;;;19.02;62.57;100071.06;5086721;28;20094;-77
2022/10/07 06:22:43;;;;;;;6.45;4.18;;;18.90;94.90;;;19.04;62.83;100066.06;5069122;28;20046;-77
2022/10/07 06:25:09;;;;;;;4.65;3.90;;;18.90;94.90;;;19.06;62.84;100066.59;5090342;28;20043;-77
2022/10/07 06:27:36;;;;;;;6.13;4.47;;;18.90;94.80;;;19.04;62.58;100057.81;5068237;28;20047;-77
2022/10/07 06:30:03;;;;;;;3.85;3.38;;;18.90;94.60;;;19.04;62.45;100066.88;5099214;28;20072;-77
2022/10/07 06:32:30;;;;;;;4.60;3.50;;;18.90;94.60;;;19.05;62.33;100060.25;5068582;28;20046;-77
2022/10/07 06:34:55;;;;;;;4.93;3.80;;;18.90;94.60;;;19.06;62.26;100064.66;5081391;28;20040;-77
2022/10/07 06:37:22;;;;;;;5.53;4.20;;;18.90;94.60;;;19.10;62.33;100062.13;5099774;28;20104;-76
2022/10/07 06:39:48;;;;;;;10.55;4.40;;;18.90;94.80;;;19.08;62.62;100059.69;5094597;28;20753;-77
2022/10/07 06:42:14;;;;;;;3.88;3.47;;;18.90;94.80;;;19.09;62.43;100061.31;5070941;28;20386;-77
2022/10/07 06:44:41;;;;;;;4.53;3.30;;;19.00;94.60;;;19.08;62.26;100054.19;5051924;28;20053;-77
2022/10/07 06:47:07;;;;;;;5.57;4.18;;;18.90;94.60;;;19.11;62.21;100057.44;5085240;28;20039;-77
2022/10/07 06:49:33;;;;;;;7.95;3.88;;;18.90;94.60;;;19.09;62.08;100042.06;5066520;28;20067;-77
2022/10/07 06:52:00;;;;;;;7.68;3.88;;;19.00;94.60;;;19.08;62.10;100045.09;5090686;28;20047;-77
2022/10/07 06:54:26;;;;;;;6.05;3.58;;;19.00;94.60;;;19.11;62.50;100041.75;5098224;28;20046;-77
2022/10/07 06:56:52;;;;;;;5.18;3.78;;;19.00;94.80;;;19.11;62.45;100041.75;5097286;28;20138;-77
2022/10/07 06:59:18;;;;;;;5.43;3.67;;;19.00;94.70;;;19.13;62.33;100045.00;5068817;28;20054;-77
2022/10/07 07:01:44;;;;;;;4.43;3.63;;;19.00;94.60;;;19.18;61.99;100044.13;5102708;28;20055;-77
2022/10/07 07:04:10;;;;;;;5.38;3.53;;;19.00;94.60;;;19.15;61.93;100037.28;5076810;28;20088;-77
2022/10/07 07:06:37;;;;;;;4.43;3.55;;;19.00;94.60;;;19.18;61.87;100038.63;5057044;28;20538;-77
2022/10/07 07:09:04;;;;;;;5.82;3.92;;;19.00;94.60;;;19.19;61.90;100035.56;5064077;28;20066;-77
2022/10/07 07:11:37;;;;;;;5.90;3.50;;;19.00;94.60;;;19.17;62.18;100037.00;5098210;28;20082;-77
2022/10/07 07:14:03;;;;;;;20.15;3.92;;;19.10;94.70;;;19.14;62.46;100035.66;5084343;28;20040;-77
2022/10/07 07:16:30;;;;;;;4.43;3.05;;;19.10;94.70;;;19.19;62.12;100030.06;5068321;28;20050;-77
2022/10/07 07:18:58;;;;;;;3.78;3.17;;;19.10;94.70;;;19.24;61.59;100029.97;5068968;28;20376;-77
2022/10/07 07:21:27;;;;;;;4.93;3.58;;;19.10;94.70;;;19.22;61.31;100026.72;5078111;28;20044;-77
2022/10/07 07:23:53;;;;;;;3.67;3.10;;;19.10;94.70;;;19.25;61.58;100026.09;5066067;28;20035;-77
2022/10/07 07:26:19;;;;;;;5.75;4.20;;;19.10;94.70;;;19.25;61.71;100030.78;5080762;28;20169;-77
2022/10/07 07:28:59;;;;;;;5.57;3.33;;;19.20;94.70;;;19.26;61.71;100027.75;5097843;28;20104;-77
2022/10/07 07:31:27;;;;;;;3.83;3.40;;;19.20;94.70;;;19.25;61.64;100025.28;5100102;28;20522;-77
2022/10/07 07:33:55;;;;;;;4.43;3.25;;;19.20;94.70;;;19.28;61.37;100031.03;5062931;28;20048;-77
2022/10/07 07:36:23;;;;;;;4.10;3.25;;;19.10;94.60;;;19.28;61.38;100028.28;5081045;28;20061;-77
2022/10/07 07:38:55;;;;;;;6.60;3.45;;;19.20;94.50;;;19.28;61.31;100020.03;5070069;28;20047;-77
2022/10/07 07:41:23;;;;;;;;;;;19.20;94.50;;;19.29;61.55;100024.41;5066660;28;20170;-77
2022/10/07 07:43:54;;;;;;;4.93;3.53;;;19.20;94.60;;;19.33;61.40;100027.34;5100610;28;19928;-77
2022/10/07 07:46:22;;;;;;;6.00;4.07;;;19.20;94.50;;;19.33;61.49;100019.09;5087867;28;20055;-77
2022/10/07 07:48:50;;;;;;;5.15;3.92;;;19.20;94.50;;;19.36;61.06;100013.00;5037088;28;20056;-77
2022/10/07 07:51:17;;;;;;;5.55;3.92;;;19.30;94.40;;;19.37;60.90;100024.81;5054197;28;20123;-77
2022/10/07 07:53:44;;;;;;;3.30;3.00;;;19.30;94.40;;;19.34;61.01;100017.19;5065942;28;20135;-77
2022/10/07 07:56:11;;;;;;;4.43;3.75;;;19.30;94.40;;;19.37;60.89;100019.31;5084252;28;20141;-77
2022/10/07 07:58:37;;;;;;;3.33;3.03;;;19.30;94.30;;;19.38;61.20;100012.69;5096441;28;20035;-77
2022/10/07 08:01:10;;;;;;;3.53;3.22;;;19.40;94.40;;;19.40;61.04;100022.28;5071848;28;20050;-77
2022/10/07 08:03:37;;;;;;;4.78;3.60;;;19.40;94.40;;;19.39;60.96;100014.34;5088915;28;20124;-77
2022/10/07 08:06:05;;;;;;;2.95;2.72;;;19.40;94.30;;;19.38;61.09;100007.19;5066561;28;20137;-77
2022/10/07 08:08:32;;;;;;;3.60;2.55;;;19.40;94.40;;;19.43;60.52;100007.09;5059086;28;20040;-77
2022/10/07 08:11:13;;;;;;;3.92;3.10;;;19.40;94.30;;;19.42;60.93;100003.53;5070087;28;20059;-77
2022/10/07 08:13:40;;;;;;;4.13;3.22;;;19.40;94.30;;;19.45;60.73;99999.34;5081815;28;20185;-77
2022/10/07 08:16:15;;;;;;;5.25;3.63;;;19.40;94.30;;;19.46;60.90;99999.06;5070396;28;20074;-77
2022/10/07 08:18:46;;;;;;;4.53;3.15;;;19.40;94.30;;;19.46;60.56;99993.56;5082579;28;20039;-77
2022/10/07 08:21:13;;;;;;;2.70;2.30;;;19.40;94.30;;;19.47;60.54;99994.38;5063150;28;20535;-77
2022/10/07 08:23:39;;;;;;;4.00;2.90;;;19.50;94.30;;;19.47;60.19;100005.38;5101829;28;20368;-77
2022/10/07 08:26:06;;;;;;;3.15;2.83;;;19.40;94.20;;;19.48;60.24;99996.00;5067194;28;20055;-77
2022/10/07 08:28:33;;;;;;;5.40;3.38;;;19.50;94.20;;;19.47;60.43;100005.38;5084256;28;20119;-77
2022/10/07 08:31:10;;;;;;;4.75;3.30;;;19.50;94.20;;;19.49;60.58;99989.38;5083396;28;20047;-77
2022/10/07 08:33:39;;;;;;;4.72;3.08;;;19.50;94.30;;;19.50;60.66;99991.00;5073307;28;20484;-77
2022/10/07 08:36:07;;;;;;;3.38;2.45;;;19.50;94.20;;;19.51;60.27;99978.88;5068491;28;20036;-77
2022/10/07 08:38:35;;;;;;;4.97;2.80;;;19.50;94.20;;;19.54;60.30;99975.53;5068871;28;20040;-77
2022/10/07 08:41:31;;;;;;;4.65;2.95;;;19.50;94.10;;;19.57;59.93;99976.84;5067861;28;20115;-77
2022/10/07 08:43:58;;;;;;;3.40;2.90;;;19.60;94.10;;;19.56;60.04;99973.25;5073323;28;20105;-77
2022/10/07 08:46:30;;;;;;;6.70;3.22;;;19.60;94.10;;;19.58;60.21;99971.03;5066064;28;20044;-77
2022/10/07 08:49:14;;;;;;;3.72;2.88;;;19.60;94.10;;;19.56;60.33;99958.69;5087228;28;20047;-77
2022/10/07 08:51:58;;;;;;;2.58;2.38;;;19.60;94.10;;;19.58;60.21;99957.28;5084489;28;20461;-77
2022/10/07 08:54:32;;;;;;;3.20;2.85;;;19.60;94.10;;;19.59;59.93;99961.66;5105138;28;20044;-77
2022/10/07 08:57:07;;;;;;;3.88;3.05;;;19.60;94.00;;;19.61;59.74;99951.16;5088379;28;20040;-77
2022/10/07 08:59:34;;;;;;;3.55;3.17;;;19.60;94.00;;;19.60;59.87;99952.28;5085359;28;20069;-77
2022/10/07 09:02:57;;;;;;;4.60;2.80;;;19.60;93.90;;;19.63;59.95;99954.41;5100985;28;20127;-77
2022/10/07 09:05:32;;;;;;;3.50;3.00;;;19.60;94.00;;;19.64;59.96;99952.47;5055424;28;20056;-77
2022/10/07 09:08:01;;;;;;;3.75;2.42;;;19.70;94.00;;;19.64;59.96;99949.72;5085484;28;20044;-77
2022/10/07 09:10:35;;;;;;;4.55;2.83;;;19.70;94.00;;;19.65;59.72;99937.59;5068746;28;20039;-77
2022/10/07 09:13:12;;;;;;;5.00;3.00;;;19.70;93.90;;;19.66;59.67;99948.28;5086849;28;20047;-77
2022/10/07 09:15:57;;;;;;;4.72;3.15;;;19.70;93.90;;;19.69;59.35;99938.63;5087430;28;20428;-77
2022/10/07 09:18:33;;;;;;;4.32;2.97;;;19.70;93.90;;;19.70;59.53;99938.34;5102942;28;20123;-77
2022/10/07 09:20:59;;;;;;;2.80;2.55;;;19.70;94.00;;;19.70;59.76;99938.34;5073555;28;20119;-77
2022/10/07 09:23:30;;;;;;;3.78;2.70;;;19.80;94.00;;;19.71;59.38;99939.16;5070484;28;20086;-77
2022/10/07 09:25:56;;;;;;;3.42;2.72;;;19.80;94.00;;;19.68;59.74;99932.31;5072878;28;20062;-77
2022/10/07 09:28:29;;;;;;;3.22;2.58;;;19.80;93.90;;;19.71;59.33;99931.69;5069229;28;20048;-77
2022/10/07 09:30:59;;;;;;;3.60;2.88;;;19.80;93.90;;;19.75;59.18;99928.38;5069853;28;20125;-77
2022/10/07 09:33:30;;;;;;;4.63;2.33;;;19.80;93.80;;;19.73;59.19;99926.72;5090673;28;20119;-77
2022/10/07 09:36:08;;;;;;;2.90;2.63;;;19.80;93.80;;;19.78;59.16;99919.47;5084326;28;20377;-77
2022/10/07 09:38:38;;;;;;;4.07;2.65;;;19.80;93.90;;;19.79;59.46;99918.34;5087390;28;20122;-77
2022/10/07 09:41:18;;;;;;;3.90;2.85;;;19.90;93.90;;;19.79;59.13;99918.34;5085353;28;20035;-77
2022/10/07 09:44:03;;;;;;;3.55;2.85;;;19.90;93.80;;;19.78;59.20;99909.28;5090662;28;20054;-77
2022/10/07 09:46:47;;;;;;;3.65;2.83;;;19.90;93.80;;;19.80;59.02;99912.53;5097615;28;20071;-77
2022/10/07 09:49:33;;;;;;;3.30;2.50;;;19.90;93.80;;;19.83;58.87;99902.84;5074572;28;20028;-77
2022/10/07 09:52:13;;;;;;;3.53;2.65;;;19.90;94.00;;;19.84;58.97;99902.53;5072360;28;20131;-77
2022/10/07 09:54:40;;;;;;;3.10;2.60;;;19.90;93.80;;;19.84;59.01;99901.72;5098720;28;20051;-77
2022/10/07 09:57:31;;;;;;;3.63;2.60;;;19.90;93.80;;;19.85;58.75;99903.38;5047592;28;20047;-77
2022/10/07 10:00:12;;;;;;;2.63;2.40;;;19.90;93.70;;;19.88;59.01;99894.47;5102472;28;20046;-77
2022/10/07 10:02:58;;;;;;;2.58;2.00;;;20.00;93.80;;;19.93;58.78;99897.94;5104088;28;20052;-77
2022/10/07 10:05:39;;;;;;;2.25;2.10;;;20.00;93.80;;;19.91;58.68;99897.41;5086464;28;20049;-77
2022/10/07 10:08:17;;;;;;;3.72;2.47;;;20.00;93.70;;;19.88;58.93;99891.72;5100964;28;20051;-77
2022/10/07 10:10:57;;;;;;;3.75;3.10;;;20.00;93.80;;;19.92;58.94;99889.97;5100237;27;20091;-77
2022/10/07 10:13:35;;;;;;;3.38;2.60;;;20.00;93.80;;;19.92;58.52;99878.97;5100971;28;20486;-77
2022/10/07 10:16:03;;;;;;;3.25;2.58;;;20.00;93.70;;;19.97;58.78;99876.09;5089525;28;20039;-77
2022/10/07 10:18:38;;;;;;;2.85;2.10;;;20.00;93.70;;;19.93;58.66;99875.09;5066821;28;20044;-77
2022/10/07 10:21:21;;;;;;;2.88;2.00;;;20.00;93.70;;;19.96;58.55;99868.97;5079985;28;20043;-77
2022/10/07 10:23:52;;;;;;;4.53;2.90;;;20.00;93.70;;;19.98;58.58;99869.47;5104659;28;20043;-77
2022/10/07 10:26:40;;;;;;;2.75;2.55;;;20.00;93.70;;;20.00;58.81;99858.13;5082475;28;20089;-77
2022/10/07 10:29:21;;;;;;;3.25;2.50;;;20.00;93.70;;;20.00;58.36;99858.97;5113456;27;20506;-77
2022/10/07 10:32:14;;;;;;;2.75;2.42;;;20.10;93.70;;;20.08;58.21;99860.16;5073206;28;20044;-77